createdAt,value
2018-02-19T00:00:30.399Z,83.34
2018-02-19T00:02:57.899Z,82.99
2018-02-19T00:05:25.467Z,83.05
2018-02-19T00:07:52.960Z,83.31
2018-02-19T00:10:21.222Z,83.07
2018-02-19T00:12:48.708Z,83.09
2018-02-19T00:15:16.220Z,83.22
2018-02-19T00:17:43.903Z,83.44
2018-02-19T00:20:11.437Z,83.45
2018-02-19T00:22:38.929Z,83.71
2018-02-19T00:25:06.448Z,83.44
2018-02-19T00:27:33.940Z,83.56
2018-02-19T00:30:01.460Z,83.48
2018-02-19T00:32:28.993Z,83.28
2018-02-19T00:34:56.554Z,83.24
2018-02-19T00:37:24.060Z,83.49
2018-02-19T00:39:55.027Z,83.56
2018-02-19T00:42:22.511Z,83.56
2018-02-19T00:44:50.027Z,84.00
2018-02-19T00:47:17.520Z,83.55
2018-02-19T00:49:45.067Z,83.71
2018-02-19T00:52:12.559Z,83.99
2018-02-19T00:54:40.104Z,84.27
2018-02-19T00:57:07.619Z,84.20
2018-02-19T00:59:35.247Z,84.34
2018-02-19T01:02:02.765Z,84.36
2018-02-19T01:04:30.408Z,84.07
2018-02-19T01:06:57.923Z,83.98
2018-02-19T01:09:25.439Z,83.63
2018-02-19T01:11:52.957Z,83.64
2018-02-19T01:14:20.489Z,83.71
2018-02-19T01:16:52.768Z,83.69
2018-02-19T01:19:22.268Z,83.70
2018-02-19T01:21:51.798Z,83.57
2018-02-19T01:24:19.356Z,83.82
2018-02-19T01:26:46.875Z,83.63
2018-02-19T01:29:14.359Z,83.77
2018-02-19T01:31:41.889Z,84.01
2018-02-19T01:34:09.463Z,84.01
2018-02-19T01:36:37.327Z,83.68
2018-02-19T01:39:04.861Z,83.53
2018-02-19T01:41:32.684Z,83.25
2018-02-19T01:44:00.180Z,83.41
2018-02-19T01:46:27.694Z,83.06
2018-02-19T01:48:55.212Z,82.84
2018-02-19T01:51:22.731Z,83.29
2018-02-19T01:53:50.276Z,83.26
2018-02-19T01:56:17.792Z,83.35
2018-02-19T01:58:46.268Z,83.26
2018-02-19T02:01:13.828Z,83.04
2018-02-19T02:03:41.315Z,83.11
2018-02-19T02:06:08.835Z,83.12
2018-02-19T02:08:36.419Z,83.23
2018-02-19T02:11:03.960Z,83.32
2018-02-19T02:13:31.538Z,83.48
2018-02-19T02:15:59.051Z,83.68
2018-02-19T02:18:26.535Z,83.72
2018-02-19T02:20:54.048Z,83.75
2018-02-19T02:23:21.544Z,83.75
2018-02-19T02:25:49.076Z,83.54
2018-02-19T02:28:16.567Z,83.10
2018-02-19T02:30:44.064Z,83.24
2018-02-19T02:33:11.592Z,83.42
2018-02-19T02:35:39.096Z,83.26
2018-02-19T02:38:06.618Z,83.48
2018-02-19T02:40:34.107Z,83.80
2018-02-19T02:43:01.648Z,83.74
2018-02-19T02:45:29.913Z,83.71
2018-02-19T02:47:58.406Z,83.58
2018-02-19T02:50:25.911Z,83.51
2018-02-19T02:52:53.439Z,83.65
2018-02-19T02:55:21.001Z,83.68
2018-02-19T02:57:48.518Z,83.48
2018-02-19T03:00:16.092Z,83.46
2018-02-19T03:02:43.602Z,83.45
2018-02-19T03:05:11.088Z,83.63
2018-02-19T03:07:38.606Z,83.66
2018-02-19T03:10:06.106Z,83.83
2018-02-19T03:12:33.619Z,83.94
2018-02-19T03:15:01.115Z,83.86
2018-02-19T03:17:28.668Z,83.58
2018-02-19T03:19:56.167Z,83.59
2018-02-19T03:22:23.786Z,83.59
2018-02-19T03:24:51.280Z,83.68
2018-02-19T03:27:18.829Z,83.44
2018-02-19T03:29:46.328Z,83.50
2018-02-19T03:32:13.851Z,83.59
2018-02-19T03:34:41.366Z,83.63
2018-02-19T03:37:08.880Z,83.44
2018-02-19T03:39:36.425Z,82.94
2018-02-19T03:42:03.943Z,83.21
2018-02-19T03:44:32.351Z,83.23
2018-02-19T03:46:59.852Z,83.10
2018-02-19T03:49:27.367Z,83.26
2018-02-19T03:51:54.960Z,83.60
2018-02-19T03:54:22.479Z,83.42
2018-02-19T03:56:49.972Z,83.43
2018-02-19T03:59:17.487Z,83.39
2018-02-19T04:01:44.992Z,83.61
2018-02-19T04:04:12.499Z,83.99
2018-02-19T04:06:41.042Z,84.06
2018-02-19T04:09:08.573Z,84.13
2018-02-19T04:11:36.051Z,83.96
2018-02-19T04:14:03.555Z,83.78
2018-02-19T04:16:31.061Z,83.64
2018-02-19T04:18:58.570Z,83.88
2018-02-19T04:21:26.084Z,83.80
2018-02-19T04:23:53.620Z,83.94
2018-02-19T04:26:21.140Z,84.00
2018-02-19T04:28:48.647Z,83.79
2018-02-19T04:31:16.159Z,83.82
2018-02-19T04:33:43.687Z,83.89
2018-02-19T04:36:11.182Z,83.87
2018-02-19T04:38:38.687Z,83.90
2018-02-19T04:41:06.180Z,83.82
2018-02-19T04:43:34.723Z,84.16
2018-02-19T04:46:06.656Z,84.20
2018-02-19T04:48:34.170Z,84.51
2018-02-19T04:51:01.663Z,84.27
2018-02-19T04:53:29.196Z,84.23
2018-02-19T04:55:56.679Z,84.32
2018-02-19T04:58:24.216Z,84.37
2018-02-19T05:00:51.723Z,84.01
2018-02-19T05:03:19.211Z,84.10
2018-02-19T05:05:46.752Z,83.85
2018-02-19T05:08:14.239Z,83.44
2018-02-19T05:10:41.752Z,83.33
2018-02-19T05:13:09.267Z,83.34
2018-02-19T05:15:37.999Z,83.45
2018-02-19T05:18:05.486Z,83.80
2018-02-19T05:20:33.004Z,84.21
2018-02-19T05:23:00.892Z,84.18
2018-02-19T05:25:28.755Z,84.00
2018-02-19T05:27:56.249Z,84.11
2018-02-19T05:30:23.779Z,83.96
2018-02-19T05:32:51.283Z,83.98
2018-02-19T05:35:18.795Z,84.16
2018-02-19T05:37:46.313Z,84.21
2018-02-19T05:40:13.838Z,84.28
2018-02-19T05:42:41.336Z,84.27
2018-02-19T05:45:08.885Z,84.45
2018-02-19T05:47:36.387Z,84.41
2018-02-19T05:50:03.988Z,84.06
2018-02-19T05:52:32.095Z,84.02
2018-02-19T05:54:59.630Z,84.01
2018-02-19T05:57:27.115Z,84.05
2018-02-19T05:59:54.653Z,84.30
2018-02-19T06:02:22.151Z,84.48
2018-02-19T06:04:49.673Z,84.54
2018-02-19T06:07:17.155Z,84.78
2018-02-19T06:09:44.674Z,84.50
2018-02-19T06:12:12.158Z,84.58
2018-02-19T06:14:39.684Z,84.77
2018-02-19T06:17:07.200Z,84.96
2018-02-19T06:19:34.705Z,84.70
2018-02-19T06:22:02.229Z,84.79
2018-02-19T06:24:29.727Z,84.68
2018-02-19T06:26:57.240Z,84.40
2018-02-19T06:29:24.732Z,84.53
2018-02-19T06:31:52.244Z,84.63
2018-02-19T06:34:19.737Z,84.79
2018-02-19T06:36:47.252Z,84.62
2018-02-19T06:39:14.744Z,84.56
2018-02-19T06:41:42.284Z,84.38
2018-02-19T06:44:09.776Z,84.16
2018-02-19T06:46:38.271Z,84.39
2018-02-19T06:49:05.772Z,84.16
2018-02-19T06:51:33.306Z,84.16
2018-02-19T06:54:00.812Z,83.85
2018-02-19T06:56:28.327Z,83.50
2018-02-19T06:58:55.823Z,83.58
2018-02-19T07:01:23.361Z,83.26
2018-02-19T07:03:50.848Z,82.92
2018-02-19T07:06:18.383Z,83.16
2018-02-19T07:08:45.872Z,83.17
2018-02-19T07:11:13.403Z,82.98
2018-02-19T07:13:40.990Z,82.51
2018-02-19T07:16:08.495Z,82.69
2018-02-19T07:18:36.003Z,82.85
2018-02-19T07:21:03.513Z,82.26
2018-02-19T07:23:31.077Z,81.67
2018-02-19T07:25:58.581Z,81.44
2018-02-19T07:28:26.095Z,81.68
2018-02-19T07:30:53.623Z,81.91
2018-02-19T07:33:21.156Z,81.63
2018-02-19T07:35:48.686Z,81.72
2018-02-19T07:38:16.224Z,81.79
2018-02-19T07:40:43.720Z,81.68
2018-02-19T07:43:11.231Z,81.18
2018-02-19T07:45:38.715Z,81.63
2018-02-19T07:48:06.330Z,81.52
2018-02-19T07:50:33.832Z,81.43
2018-02-19T07:53:01.356Z,81.44
2018-02-19T07:55:29.200Z,81.42
2018-02-19T07:57:56.733Z,81.17
2018-02-19T08:00:24.220Z,81.45
2018-02-19T08:02:51.736Z,81.42
2018-02-19T08:05:19.277Z,81.09
2018-02-19T08:07:46.795Z,80.62
2018-02-19T08:10:14.288Z,80.37
2018-02-19T08:12:41.825Z,79.63
2018-02-19T08:15:09.336Z,79.37
2018-02-19T08:17:36.868Z,79.24
2018-02-19T08:20:04.384Z,79.30
2018-02-19T08:22:31.995Z,78.68
2018-02-19T08:24:59.513Z,79.15
2018-02-19T08:27:27.012Z,79.08
2018-02-19T08:29:54.531Z,78.16
2018-02-19T08:32:22.015Z,77.57
2018-02-19T08:34:50.510Z,77.41
2018-02-19T08:37:18.027Z,76.94
2018-02-19T08:39:45.539Z,77.08
2018-02-19T08:42:13.040Z,77.32
2018-02-19T08:44:40.592Z,77.28
2018-02-19T08:47:08.109Z,76.96
2018-02-19T08:49:35.640Z,76.92
2018-02-19T08:52:03.136Z,76.83
2018-02-19T08:54:30.660Z,76.90
2018-02-19T08:56:58.156Z,77.23
2018-02-19T08:59:25.678Z,77.02
2018-02-19T09:01:53.159Z,76.61
2018-02-19T09:04:20.672Z,76.67
2018-02-19T09:06:48.190Z,76.74
2018-02-19T09:09:15.711Z,76.73
2018-02-19T09:11:43.199Z,77.30
2018-02-19T09:14:10.732Z,77.25
2018-02-19T09:16:38.229Z,76.74
2018-02-19T09:19:05.748Z,75.89
2018-02-19T09:21:33.340Z,75.79
2018-02-19T09:24:00.842Z,75.17
2018-02-19T09:26:28.373Z,75.38
2018-02-19T09:28:55.864Z,75.86
2018-02-19T09:31:23.370Z,74.64
2018-02-19T09:33:51.024Z,74.42
2018-02-19T09:36:18.690Z,74.32
2018-02-19T09:38:46.220Z,73.39
2018-02-19T09:44:17.008Z,71.88
2018-02-19T09:46:44.547Z,72.11
2018-02-19T09:49:12.035Z,71.63
2018-02-19T09:51:39.572Z,72.09
2018-02-19T09:54:07.068Z,70.88
2018-02-19T09:56:34.579Z,70.62
2018-02-19T09:59:02.063Z,70.45
2018-02-19T10:01:29.579Z,70.23
2018-02-19T10:03:57.188Z,69.64
2018-02-19T10:06:24.733Z,69.01
2018-02-19T10:08:52.248Z,70.35
2018-02-19T10:11:19.851Z,71.06
2018-02-19T10:13:47.335Z,70.42
2018-02-19T10:16:14.860Z,69.60
2018-02-19T10:18:42.348Z,70.92
2018-02-19T10:21:09.990Z,70.98
2018-02-19T10:23:37.491Z,72.49
2018-02-19T10:26:05.135Z,71.37
2018-02-19T10:28:32.671Z,69.87
2018-02-19T10:31:00.187Z,69.94
2018-02-19T10:33:27.679Z,70.64
2018-02-19T10:35:55.231Z,68.51
2018-02-19T10:38:22.921Z,69.32
2018-02-19T10:40:50.456Z,69.94
2018-02-19T10:43:17.962Z,70.74
2018-02-19T10:45:45.486Z,71.17
2018-02-19T10:48:13.042Z,69.27
2018-02-19T10:50:40.595Z,69.66
2018-02-19T10:53:08.176Z,67.13
2018-02-19T10:55:35.719Z,67.68
2018-02-19T10:58:03.235Z,67.27
2018-02-19T11:00:36.394Z,67.34
2018-02-19T11:03:03.931Z,67.56
2018-02-19T11:05:31.426Z,66.86
2018-02-19T11:07:58.940Z,66.52
2018-02-19T11:10:26.430Z,67.65
2018-02-19T11:12:53.957Z,67.15
2018-02-19T11:15:21.632Z,66.03
2018-02-19T11:17:49.148Z,65.70
2018-02-19T11:20:16.752Z,64.45
2018-02-19T11:22:44.312Z,64.93
2018-02-19T11:25:11.812Z,65.94
2018-02-19T11:27:39.331Z,64.47
2018-02-19T11:30:07.778Z,64.60
2018-02-19T11:32:35.288Z,63.98
2018-02-19T11:35:03.713Z,63.24
2018-02-19T11:37:31.264Z,63.00
2018-02-19T11:39:58.750Z,64.29
2018-02-19T11:42:26.316Z,62.81
2018-02-19T11:44:54.764Z,62.68
2018-02-19T11:47:22.279Z,63.21
2018-02-19T11:49:49.767Z,61.32
2018-02-19T11:52:17.279Z,60.76
2018-02-19T11:54:44.837Z,59.45
2018-02-19T11:57:12.347Z,59.96
2018-02-19T11:59:39.843Z,59.94
2018-02-19T12:02:07.411Z,60.12
2018-02-19T12:04:34.974Z,57.89
2018-02-19T12:07:02.470Z,57.68
2018-02-19T12:09:30.084Z,57.16
2018-02-19T12:11:57.581Z,58.73
2018-02-19T12:14:25.203Z,57.87
2018-02-19T12:16:52.737Z,58.82
2018-02-19T12:19:20.251Z,58.40
2018-02-19T12:21:47.780Z,60.39
2018-02-19T12:24:15.291Z,59.77
2018-02-19T12:26:42.784Z,60.65
2018-02-19T12:29:10.307Z,60.39
2018-02-19T12:31:37.860Z,59.63
2018-02-19T12:34:05.483Z,59.76
2018-02-19T12:36:32.975Z,58.12
2018-02-19T12:39:00.505Z,58.74
2018-02-19T12:41:28.060Z,57.51
2018-02-19T12:43:55.620Z,57.42
2018-02-19T12:46:23.112Z,57.42
2018-02-19T12:48:50.624Z,57.78
2018-02-19T12:51:18.118Z,57.07
2018-02-19T12:53:45.659Z,56.60
2018-02-19T12:56:13.151Z,58.99
2018-02-19T12:58:40.679Z,57.55
2018-02-19T13:01:08.171Z,57.72
2018-02-19T13:03:35.739Z,57.85
2018-02-19T13:06:03.247Z,57.87
2018-02-19T13:08:30.831Z,55.93
2018-02-19T13:10:58.367Z,58.18
2018-02-19T13:13:25.940Z,56.63
2018-02-19T13:15:53.440Z,56.47
2018-02-19T13:18:21.109Z,56.63
2018-02-19T13:20:48.591Z,57.02
2018-02-19T13:23:16.191Z,58.90
2018-02-19T13:25:43.691Z,58.93
2018-02-19T13:28:11.284Z,58.51
2018-02-19T13:30:38.801Z,59.02
2018-02-19T13:33:06.308Z,57.96
2018-02-19T13:35:33.855Z,58.23
2018-02-19T13:38:01.419Z,57.91
2018-02-19T13:40:28.980Z,59.16
2018-02-19T13:42:56.471Z,60.33
2018-02-19T13:45:23.987Z,58.78
2018-02-19T13:47:51.559Z,59.05
2018-02-19T13:50:19.966Z,59.00
2018-02-19T13:52:47.472Z,57.34
2018-02-19T13:55:14.983Z,58.57
2018-02-19T13:57:42.479Z,58.13
2018-02-19T14:00:09.996Z,57.75
2018-02-19T14:02:37.510Z,54.85
2018-02-19T14:05:05.091Z,55.02
2018-02-19T14:07:32.653Z,53.44
2018-02-19T14:10:00.180Z,53.04
2018-02-19T14:12:27.698Z,54.05
2018-02-19T14:14:55.228Z,54.41
2018-02-19T14:17:22.764Z,55.56
2018-02-19T14:19:50.300Z,56.72
2018-02-19T14:22:17.803Z,55.14
2018-02-19T14:24:45.311Z,53.98
2018-02-19T14:27:12.826Z,54.77
2018-02-19T14:29:40.479Z,53.91
2018-02-19T14:32:07.973Z,52.15
2018-02-19T14:34:35.497Z,50.92
2018-02-19T14:37:02.988Z,50.54
2018-02-19T14:39:30.620Z,50.18
2018-02-19T14:41:58.135Z,51.42
2018-02-19T14:44:25.646Z,50.73
2018-02-19T14:46:53.135Z,51.99
2018-02-19T14:49:20.667Z,51.05
2018-02-19T14:51:48.216Z,51.31
2018-02-19T14:54:15.747Z,51.68
2018-02-19T14:56:43.239Z,50.70
2018-02-19T14:59:10.769Z,51.47
2018-02-19T15:01:38.351Z,51.60
2018-02-19T15:04:05.913Z,50.84
2018-02-19T15:06:33.423Z,50.65
2018-02-19T15:09:00.916Z,51.92
2018-02-19T15:11:28.449Z,55.14
2018-02-19T15:13:56.047Z,57.08
2018-02-19T15:16:23.563Z,57.62
2018-02-19T15:21:14.126Z,59.71
2018-02-19T15:23:41.698Z,60.52
2018-02-19T15:26:09.354Z,59.86
2018-02-19T15:28:36.848Z,61.68
2018-02-19T15:31:04.364Z,60.32
2018-02-19T15:33:31.919Z,60.63
2018-02-19T15:35:59.480Z,60.90
2018-02-19T15:38:26.976Z,61.43
2018-02-19T15:40:54.496Z,61.07
2018-02-19T15:43:22.000Z,61.09
2018-02-19T15:45:49.512Z,60.60
2018-02-19T15:48:17.089Z,62.89
2018-02-19T15:50:44.735Z,62.23
2018-02-19T15:53:12.395Z,61.51
2018-02-19T15:55:39.898Z,60.98
2018-02-19T15:58:07.388Z,61.04
2018-02-19T16:00:34.896Z,62.74
2018-02-19T16:03:02.392Z,62.69
2018-02-19T16:05:29.911Z,63.48
2018-02-19T16:07:57.439Z,63.96
2018-02-19T16:10:24.960Z,64.07
2018-02-19T16:12:52.456Z,63.84
2018-02-19T16:15:19.980Z,63.12
2018-02-19T16:17:47.465Z,64.50
2018-02-19T16:20:15.036Z,64.83
2018-02-19T16:22:42.552Z,65.03
2018-02-19T16:25:10.052Z,64.04
2018-02-19T16:27:37.620Z,63.92
2018-02-19T16:30:05.111Z,63.14
2018-02-19T16:32:32.736Z,63.55
2018-02-19T16:35:00.292Z,63.67
2018-02-19T16:37:27.805Z,64.02
2018-02-19T16:39:55.311Z,64.08
2018-02-19T16:42:23.156Z,65.08
2018-02-19T16:44:50.679Z,66.14
2018-02-19T16:47:18.195Z,66.88
2018-02-19T16:49:45.776Z,67.26
2018-02-19T16:52:13.292Z,67.06
2018-02-19T16:54:40.785Z,66.95
2018-02-19T16:57:08.525Z,67.33
2018-02-19T16:59:36.014Z,67.31
2018-02-19T17:02:03.520Z,67.53
2018-02-19T17:04:31.007Z,67.11
2018-02-19T17:06:58.567Z,68.06
2018-02-19T17:09:26.131Z,68.41
2018-02-19T17:11:53.708Z,68.87
2018-02-19T17:14:21.211Z,68.66
2018-02-19T17:16:48.724Z,68.23
2018-02-19T17:19:16.288Z,67.77
2018-02-19T17:21:43.796Z,68.68
2018-02-19T17:24:11.389Z,67.97
2018-02-19T17:26:38.900Z,68.95
2018-02-19T17:29:06.423Z,68.49
2018-02-19T17:31:33.942Z,68.74
2018-02-19T17:34:01.433Z,68.94
2018-02-19T17:36:28.950Z,67.94
2018-02-19T17:38:57.045Z,69.20
2018-02-19T17:41:24.591Z,68.79
2018-02-19T17:43:52.200Z,69.49
2018-02-19T17:46:19.724Z,69.15
2018-02-19T17:48:47.299Z,68.83
2018-02-19T17:51:14.847Z,68.40
2018-02-19T17:53:42.424Z,69.08
2018-02-19T17:56:09.924Z,69.74
2018-02-19T17:58:37.533Z,68.96
2018-02-19T18:01:05.096Z,69.22
2018-02-19T18:03:32.650Z,69.15
2018-02-19T18:06:00.143Z,69.35
2018-02-19T18:08:27.654Z,68.57
2018-02-19T18:10:55.140Z,68.32
2018-02-19T18:13:22.648Z,67.73
2018-02-19T18:15:50.264Z,68.33
2018-02-19T18:18:17.832Z,68.46
2018-02-19T18:20:45.367Z,68.54
2018-02-19T18:23:12.928Z,67.91
2018-02-19T18:25:40.528Z,68.26
2018-02-19T18:28:08.076Z,68.24
2018-02-19T18:30:35.575Z,67.17
2018-02-19T18:33:03.111Z,67.54
2018-02-19T18:35:30.664Z,67.97
2018-02-19T18:37:58.184Z,68.20
2018-02-19T18:40:25.723Z,69.17
2018-02-19T18:42:53.235Z,69.02
2018-02-19T18:45:21.668Z,69.39
2018-02-19T18:47:49.247Z,70.07
2018-02-19T18:50:16.776Z,70.01
2018-02-19T18:52:44.296Z,70.08
2018-02-19T18:55:11.820Z,70.45
2018-02-19T18:57:39.358Z,69.78
2018-02-19T19:00:06.927Z,70.53
2018-02-19T19:02:34.479Z,69.61
2018-02-19T19:05:01.987Z,69.67
2018-02-19T19:07:41.677Z,69.79
2018-02-19T19:10:21.147Z,70.06
2018-02-19T19:12:48.704Z,69.47
2018-02-19T19:15:16.267Z,69.71
2018-02-19T19:17:43.772Z,70.90
2018-02-19T19:20:11.264Z,71.02
2018-02-19T19:22:38.780Z,70.61
2018-02-19T19:25:06.267Z,71.20
2018-02-19T19:27:33.805Z,71.05
2018-02-19T19:30:01.412Z,70.88
2018-02-19T19:32:28.952Z,69.83
2018-02-19T19:34:56.477Z,69.68
2018-02-19T19:37:23.992Z,70.23
2018-02-19T19:39:51.548Z,70.00
2018-02-19T19:42:19.043Z,69.79
2018-02-19T19:44:46.562Z,70.35
2018-02-19T19:47:14.048Z,70.55
2018-02-19T19:49:41.587Z,70.41
2018-02-19T19:52:09.093Z,70.49
2018-02-19T19:54:36.611Z,70.75
2018-02-19T19:57:04.120Z,70.48
2018-02-19T19:59:31.643Z,70.28
2018-02-19T20:01:59.175Z,70.33
2018-02-19T20:04:26.691Z,69.45
2018-02-19T20:06:54.191Z,69.75
2018-02-19T20:09:21.716Z,70.09
2018-02-19T20:11:49.948Z,70.56
2018-02-19T20:14:17.469Z,71.16
2018-02-19T20:16:45.168Z,70.42
2018-02-19T20:19:12.699Z,70.79
2018-02-19T20:21:40.196Z,70.29
2018-02-19T20:24:07.720Z,70.40
2018-02-19T20:26:35.213Z,69.97
2018-02-19T20:29:02.736Z,70.24
2018-02-19T20:31:30.229Z,70.51
2018-02-19T20:33:57.758Z,70.70
2018-02-19T20:36:25.256Z,70.23
2018-02-19T20:38:52.780Z,70.28
2018-02-19T20:41:20.353Z,69.99
2018-02-19T20:43:47.868Z,70.69
2018-02-19T20:46:15.363Z,70.69
2018-02-19T20:48:42.927Z,70.75
2018-02-19T20:51:10.497Z,70.63
2018-02-19T20:53:38.039Z,70.68
2018-02-19T20:56:05.540Z,70.37
2018-02-19T20:58:33.056Z,70.72
2018-02-19T21:01:00.624Z,71.21
2018-02-19T21:03:28.147Z,70.90
2018-02-19T21:05:55.643Z,71.70
2018-02-19T21:08:23.359Z,71.75
2018-02-19T21:10:50.864Z,71.66
2018-02-19T21:13:18.385Z,71.27
2018-02-19T21:15:46.244Z,71.87
2018-02-19T21:18:13.750Z,71.33
2018-02-19T21:20:41.339Z,71.49
2018-02-19T21:23:08.828Z,71.16
2018-02-19T21:25:36.350Z,71.75
2018-02-19T21:28:03.849Z,71.42
2018-02-19T21:30:31.736Z,71.58
2018-02-19T21:32:59.304Z,71.54
2018-02-19T21:35:26.812Z,71.49
2018-02-19T21:37:54.319Z,71.67
2018-02-19T21:40:21.896Z,72.11
2018-02-19T21:42:49.383Z,72.39
2018-02-19T21:45:16.928Z,72.59
2018-02-19T21:47:44.526Z,72.22
2018-02-19T21:50:12.115Z,72.67
2018-02-19T21:52:39.604Z,72.60
2018-02-19T21:55:07.124Z,72.69
2018-02-19T21:57:34.616Z,72.85
2018-02-19T22:00:02.147Z,73.27
2018-02-19T22:02:29.651Z,73.50
2018-02-19T22:04:57.172Z,73.00
2018-02-19T22:07:25.924Z,72.92
2018-02-19T22:09:53.619Z,73.34
2018-02-19T22:12:21.179Z,73.57
2018-02-19T22:14:48.705Z,73.68
2018-02-19T22:17:16.198Z,74.10
2018-02-19T22:19:43.712Z,74.45
2018-02-19T22:22:11.208Z,74.74
2018-02-19T22:24:38.718Z,74.99
2018-02-19T22:27:06.236Z,75.02
2018-02-19T22:29:33.792Z,74.64
2018-02-19T22:32:01.283Z,74.97
2018-02-19T22:34:28.804Z,75.08
2018-02-19T22:36:56.367Z,75.12
2018-02-19T22:39:23.923Z,75.39
2018-02-19T22:41:51.488Z,75.72
2018-02-19T22:44:19.064Z,75.88
2018-02-19T22:46:46.612Z,76.37
2018-02-19T22:49:14.240Z,76.61
2018-02-19T22:51:41.824Z,76.85
2018-02-19T22:54:09.334Z,76.62
2018-02-19T22:56:36.947Z,76.56
2018-02-19T22:59:04.510Z,76.54
2018-02-19T23:01:32.067Z,76.76
2018-02-19T23:03:59.558Z,76.43
2018-02-19T23:06:27.205Z,77.09
2018-02-19T23:08:54.691Z,77.06
2018-02-19T23:11:22.208Z,76.82
2018-02-19T23:13:49.700Z,76.78
2018-02-19T23:16:17.212Z,76.97
2018-02-19T23:18:44.699Z,76.65
2018-02-19T23:21:12.228Z,76.03
2018-02-19T23:23:39.712Z,76.45
2018-02-19T23:26:07.223Z,76.40
2018-02-19T23:28:34.708Z,76.31
2018-02-19T23:31:02.217Z,76.63
2018-02-19T23:33:29.715Z,76.56
2018-02-19T23:35:57.241Z,76.48
2018-02-19T23:38:24.728Z,76.74
2018-02-19T23:40:52.255Z,76.42
2018-02-19T23:43:19.743Z,75.94
2018-02-19T23:45:47.256Z,75.96
2018-02-19T23:48:14.772Z,75.91
2018-02-19T23:50:42.287Z,75.71
2018-02-19T23:53:09.792Z,75.95
2018-02-19T23:55:37.303Z,75.84
2018-02-19T23:58:04.800Z,75.62
